EGPD/ABZ METAR and TAF weather

Enter ICAO airport designator
Station Type Date Time Source
EGPD METAR 2018/07/20 14:20 UTC NOAA

EGPD 201420Z VRB02KT 9999 FEW011 SCT016 BKN030 18/14 Q1011


Station Type Date Time Source
EGPD Decoded METAR 2018/07/20 14:20 UTC NOAA

Aberdeen / Dyce, United Kingdom (EGPD) 57-12N 002-13W 0M
Jul 20, 2018 - 10:20 AM EDT / 2018.07.20 1420 UTC
Wind: Variable at 2 MPH (2 KT):0
Visibility: greater than 7 mile(s):0
Sky conditions: mostly cloudy
Temperature: 64 F (18 C)
Dew Point: 57 F (14 C)
Relative Humidity: 77%
Pressure (altimeter): 29.85 in. Hg (1011 hPa)
ob: EGPD 201420Z VRB02KT 9999 FEW011 SCT016 BKN030 18/14 Q1011
cycle: 14

Station Type Date Time Source
EGPD TAF 2018/07/20 12:15 UTC NOAA

TAF EGPD 201059Z 2012/2112 20005KT 9999 BKN030
TEMPO 2012/2015 8000 -RA PROB30
TEMPO 2012/2014 6000 RA BKN014
TEMPO 2018/2109 6000 -RADZ BKN012 PROB40
TEMPO 2021/2109 BKN005


Example: see airport list